createdAt,value
2022-11-24T00:01:16.692Z,18.02
2022-11-24T00:03:46.641Z,17.40
2022-11-24T00:06:16.351Z,16.35
2022-11-24T00:08:46.536Z,17.95
2022-11-24T00:11:20.413Z,17.20
2022-11-24T00:13:49.466Z,16.63
2022-11-24T00:16:20.138Z,17.58
2022-11-24T00:18:50.320Z,18.75
2022-11-24T00:21:20.278Z,17.52
2022-11-24T00:23:49.393Z,18.35
2022-11-24T00:26:23.073Z,17.77
2022-11-24T00:28:53.124Z,16.70
2022-11-24T00:31:29.266Z,17.35
2022-11-24T00:34:01.164Z,18.40
2022-11-24T00:36:32.500Z,18.25
2022-11-24T00:39:02.860Z,18.55
2022-11-24T00:41:31.840Z,18.70
2022-11-24T00:44:00.747Z,19.02
2022-11-24T00:46:29.608Z,18.15
2022-11-24T00:48:58.675Z,18.60
2022-11-24T00:51:28.109Z,18.52
2022-11-24T00:53:56.933Z,18.33
2022-11-24T01:01:23.825Z,18.25
2022-11-24T01:03:52.854Z,19.63
2022-11-24T01:06:23.553Z,17.88
2022-11-24T01:08:52.171Z,18.52
2022-11-24T01:13:55.941Z,18.88
2022-11-24T01:16:31.189Z,18.83
2022-11-24T01:18:59.467Z,18.63
2022-11-24T01:21:27.855Z,19.13
2022-11-24T01:23:56.105Z,19.98
2022-11-24T01:26:24.459Z,19.15
2022-11-24T01:28:56.927Z,19.10
2022-11-24T01:31:26.606Z,19.65
2022-11-24T01:33:55.114Z,19.17
2022-11-24T01:36:23.573Z,19.73
2022-11-24T01:38:52.671Z,18.33
2022-11-24T01:41:25.495Z,18.52
2022-11-24T01:43:55.512Z,20.92
2022-11-24T01:46:59.190Z,18.67
2022-11-24T01:49:55.329Z,19.55
2022-11-24T01:52:30.850Z,19.63
2022-11-24T01:55:09.285Z,20.23
2022-11-24T01:57:45.041Z,19.40
2022-11-24T02:00:14.838Z,19.20
2022-11-24T02:02:44.907Z,20.30
2022-11-24T02:05:23.883Z,19.75
2022-11-24T02:07:54.495Z,21.30
2022-11-24T02:10:23.509Z,19.77
2022-11-24T02:12:54.147Z,19.88
2022-11-24T02:15:23.143Z,19.33
2022-11-24T02:17:51.372Z,19.73
2022-11-24T02:20:19.618Z,20.08
2022-11-24T02:23:12.302Z,21.02
2022-11-24T02:26:03.651Z,20.02
2022-11-24T02:28:32.532Z,20.60
2022-11-24T02:31:01.504Z,19.92
2022-11-24T02:33:30.780Z,19.73
2022-11-24T02:35:58.913Z,20.52
2022-11-24T02:38:31.484Z,18.98
2022-11-24T02:41:03.216Z,19.42
2022-11-24T02:43:38.829Z,20.70
2022-11-24T02:46:06.984Z,20.33
2022-11-24T02:48:35.232Z,19.65
2022-11-24T02:51:03.775Z,19.80
2022-11-24T02:53:32.265Z,20.55
2022-11-24T02:56:00.484Z,20.02
2022-11-24T02:58:28.618Z,18.83
2022-11-24T03:00:56.761Z,19.65
2022-11-24T03:03:25.856Z,19.58
2022-11-24T03:05:54.565Z,19.08
2022-11-24T03:08:22.822Z,20.13
2022-11-24T03:10:51.095Z,19.27
2022-11-24T03:13:19.194Z,19.95
2022-11-24T03:15:47.684Z,20.65
2022-11-24T03:18:15.922Z,19.92
2022-11-24T03:20:44.078Z,20.40
2022-11-24T03:23:12.266Z,20.98
2022-11-24T03:25:40.394Z,19.27
2022-11-24T03:28:08.660Z,18.38
2022-11-24T03:30:36.804Z,19.17
2022-11-24T03:33:05.071Z,20.20
2022-11-24T03:35:33.164Z,18.90
2022-11-24T03:38:01.467Z,20.92
2022-11-24T03:42:57.904Z,19.20
2022-11-24T03:48:15.612Z,20.15
2022-11-24T03:50:44.587Z,20.13
2022-11-24T03:53:12.755Z,19.83
2022-11-24T03:55:40.858Z,19.95
2022-11-24T03:58:09.115Z,20.20
2022-11-24T04:00:37.150Z,19.40
2022-11-24T04:03:05.416Z,19.90
2022-11-24T04:05:33.525Z,19.60
2022-11-24T04:08:01.741Z,19.25
2022-11-24T04:10:30.947Z,18.95
2022-11-24T04:12:59.070Z,19.17
2022-11-24T04:15:27.091Z,18.77
2022-11-24T04:17:56.805Z,18.63
2022-11-24T04:20:25.037Z,19.20
2022-11-24T04:22:53.256Z,20.08
2022-11-24T04:25:21.246Z,20.13
2022-11-24T04:27:53.020Z,18.60
2022-11-24T04:30:22.559Z,19.33
2022-11-24T04:32:51.025Z,19.98
2022-11-24T04:35:20.311Z,18.42
2022-11-24T04:37:48.525Z,18.98
2022-11-24T04:40:17.112Z,17.92
2022-11-24T04:45:13.086Z,18.60
2022-11-24T04:47:41.197Z,19.15
2022-11-24T04:50:10.030Z,19.48
2022-11-24T04:52:38.177Z,18.88
2022-11-24T04:55:06.674Z,18.42
2022-11-24T04:57:34.815Z,18.65
2022-11-24T05:00:03.164Z,18.83
2022-11-24T05:02:31.294Z,18.65
2022-11-24T05:04:59.413Z,20.15
2022-11-24T05:07:27.661Z,19.70
2022-11-24T05:09:59.662Z,18.27
2022-11-24T05:12:29.094Z,18.92
2022-11-24T05:15:01.109Z,19.45
2022-11-24T05:17:39.874Z,18.75
2022-11-24T05:20:08.536Z,17.55
2022-11-24T05:22:36.603Z,18.13
2022-11-24T05:25:05.161Z,17.40
2022-11-24T05:30:01.277Z,18.70
2022-11-24T05:32:29.512Z,18.10
2022-11-24T05:34:57.702Z,18.27
2022-11-24T05:37:25.999Z,18.23
2022-11-24T05:39:54.347Z,17.67
2022-11-24T05:42:22.524Z,17.77
2022-11-24T05:44:50.859Z,17.50
2022-11-24T05:47:19.611Z,18.70
2022-11-24T05:49:47.787Z,17.88
2022-11-24T05:52:16.852Z,17.88
2022-11-24T05:54:44.971Z,17.70
2022-11-24T05:57:13.222Z,18.67
2022-11-24T05:59:41.519Z,19.05
2022-11-24T06:02:09.996Z,16.90
2022-11-24T06:04:38.645Z,18.83
2022-11-24T06:07:10.072Z,17.55
2022-11-24T06:09:39.761Z,18.58
2022-11-24T06:12:09.244Z,17.85
2022-11-24T06:14:37.751Z,18.20
2022-11-24T06:17:06.223Z,18.33
2022-11-24T06:19:37.442Z,17.55
2022-11-24T06:22:09.759Z,18.67
2022-11-24T06:24:38.045Z,18.75
2022-11-24T06:27:06.072Z,18.92
2022-11-24T06:29:34.276Z,18.10
2022-11-24T06:32:02.444Z,18.73
2022-11-24T06:34:30.648Z,18.13
2022-11-24T06:36:59.244Z,20.00
2022-11-24T06:39:27.518Z,19.42
2022-11-24T06:41:55.705Z,18.02
2022-11-24T06:44:23.882Z,19.58
2022-11-24T06:46:52.033Z,18.50
2022-11-24T06:49:20.263Z,19.23
2022-11-24T06:51:48.450Z,20.50
2022-11-24T06:54:18.960Z,18.67
2022-11-24T06:56:47.294Z,19.55
2022-11-24T06:59:20.538Z,18.20
2022-11-24T07:01:48.817Z,18.08
2022-11-24T07:04:17.011Z,17.45
2022-11-24T07:06:45.829Z,16.75
2022-11-24T07:14:10.879Z,18.92
2022-11-24T07:21:35.537Z,18.45
2022-11-24T07:24:03.770Z,17.52
2022-11-24T07:26:31.793Z,18.50
2022-11-24T07:29:00.174Z,17.70
2022-11-24T07:31:28.414Z,18.65
2022-11-24T07:33:56.690Z,17.13
2022-11-24T07:36:25.117Z,18.55
2022-11-24T07:38:53.420Z,19.73
2022-11-24T07:41:21.866Z,18.15
2022-11-24T07:43:50.523Z,18.77
2022-11-24T07:46:20.221Z,19.40
2022-11-24T07:48:48.754Z,18.10
2022-11-24T07:51:17.107Z,17.13
2022-11-24T07:53:46.765Z,17.77
2022-11-24T07:56:14.912Z,17.52
2022-11-24T07:58:45.066Z,18.52
2022-11-24T08:01:19.002Z,18.33
2022-11-24T08:03:47.956Z,18.05
2022-11-24T08:06:27.360Z,18.05
2022-11-24T08:08:59.392Z,18.80
2022-11-24T08:11:28.102Z,18.33
2022-11-24T08:16:24.220Z,18.90
2022-11-24T08:18:54.715Z,18.25
2022-11-24T08:21:23.950Z,20.48
2022-11-24T08:23:56.253Z,18.98
2022-11-24T08:26:25.354Z,18.77
2022-11-24T08:28:56.362Z,19.63
2022-11-24T08:31:25.872Z,18.67
2022-11-24T08:33:56.749Z,19.13
2022-11-24T08:36:25.130Z,20.30
2022-11-24T08:39:00.880Z,19.20
2022-11-24T08:41:30.111Z,19.17
2022-11-24T08:43:58.435Z,20.13
2022-11-24T08:46:26.951Z,19.90
2022-11-24T08:54:01.395Z,19.80
2022-11-24T08:56:32.117Z,19.25
2022-11-24T08:59:01.074Z,18.95
2022-11-24T09:01:30.425Z,19.30
2022-11-24T09:03:59.031Z,18.52
2022-11-24T09:06:28.785Z,18.75
2022-11-24T09:08:58.014Z,20.35
2022-11-24T09:11:27.767Z,18.45
2022-11-24T09:13:56.497Z,18.90
2022-11-24T09:19:03.338Z,18.30
2022-11-24T09:21:33.343Z,19.27
2022-11-24T09:24:01.566Z,18.88
2022-11-24T09:26:32.048Z,18.67
2022-11-24T09:29:01.860Z,18.45
2022-11-24T09:31:36.278Z,19.70
2022-11-24T09:34:07.216Z,19.27
2022-11-24T09:36:36.278Z,18.13
2022-11-24T09:39:05.313Z,17.65
2022-11-24T09:41:55.143Z,17.77
2022-11-24T09:44:42.912Z,19.02
2022-11-24T09:47:37.034Z,17.90
2022-11-24T09:50:16.847Z,17.92
2022-11-24T09:52:49.152Z,16.15
2022-11-24T09:55:24.776Z,16.23
2022-11-24T09:58:15.681Z,17.52
2022-11-24T10:00:44.086Z,16.30
2022-11-24T10:03:19.767Z,16.92
2022-11-24T10:05:51.653Z,17.67
2022-11-24T10:08:28.473Z,16.20
2022-11-24T10:11:02.535Z,16.95
2022-11-24T10:14:07.039Z,15.60
2022-11-24T10:16:57.436Z,15.98
2022-11-24T10:20:07.328Z,15.65
2022-11-24T10:22:44.884Z,15.68
2022-11-24T10:25:17.567Z,14.60
2022-11-24T10:27:55.671Z,15.25
2022-11-24T10:30:25.237Z,14.38
2022-11-24T10:33:18.112Z,14.90
2022-11-24T10:36:09.595Z,15.05
2022-11-24T10:38:53.443Z,14.55
2022-11-24T10:41:40.072Z,13.98
2022-11-24T10:44:15.540Z,14.45
2022-11-24T10:46:44.337Z,14.18
2022-11-24T10:49:28.299Z,14.85
2022-11-24T10:52:05.532Z,14.55
2022-11-24T10:54:34.450Z,14.00
2022-11-24T10:57:03.449Z,13.70
2022-11-24T10:59:38.717Z,14.10
2022-11-24T11:02:36.825Z,14.82
2022-11-24T11:05:53.567Z,13.40
2022-11-24T11:08:30.309Z,12.27
2022-11-24T11:11:19.639Z,14.10
2022-11-24T11:14:04.413Z,12.65
2022-11-24T11:16:56.710Z,13.73
2022-11-24T11:19:53.153Z,12.70
2022-11-24T11:22:36.748Z,13.15
2022-11-24T11:25:10.886Z,11.88
2022-11-24T11:27:40.889Z,12.05
2022-11-24T11:36:16.216Z,12.23
2022-11-24T11:38:45.824Z,12.88
2022-11-24T11:41:30.754Z,11.57
2022-11-24T11:44:24.246Z,11.93
2022-11-24T11:46:54.707Z,12.00
2022-11-24T11:49:23.144Z,12.02
2022-11-24T11:52:08.544Z,11.30
2022-11-24T11:55:05.319Z,10.85
2022-11-24T11:57:52.966Z,11.02
2022-11-24T12:00:22.340Z,10.38
2022-11-24T12:03:00.069Z,11.60
2022-11-24T12:05:36.134Z,11.43
2022-11-24T12:08:20.982Z,11.30
2022-11-24T12:10:55.995Z,10.18
2022-11-24T12:13:48.628Z,9.88
2022-11-24T12:16:29.851Z,9.73
2022-11-24T12:19:34.422Z,10.38
2022-11-24T12:22:29.880Z,10.55
2022-11-24T12:25:26.940Z,10.30
2022-11-24T12:28:18.888Z,10.85
2022-11-24T12:31:18.820Z,10.02
2022-11-24T12:34:12.777Z,9.40
2022-11-24T12:37:14.570Z,9.43
2022-11-24T12:39:48.978Z,9.82
2022-11-24T12:42:23.354Z,9.38
2022-11-24T12:45:10.205Z,9.30
2022-11-24T12:47:53.675Z,8.85
2022-11-24T12:50:27.240Z,9.20
2022-11-24T12:53:04.490Z,8.68
2022-11-24T12:55:34.342Z,8.75
2022-11-24T12:58:18.677Z,9.10
2022-11-24T13:01:05.353Z,9.10
2022-11-24T13:03:42.368Z,9.02
2022-11-24T13:06:38.130Z,10.23
2022-11-24T13:09:11.483Z,9.35
2022-11-24T13:11:43.035Z,8.10
2022-11-24T13:14:19.132Z,8.65
2022-11-24T13:19:47.584Z,8.15
2022-11-24T13:22:23.840Z,8.10
2022-11-24T13:25:17.826Z,8.63
2022-11-24T13:27:49.270Z,8.68
2022-11-24T13:30:35.739Z,8.90
2022-11-24T13:33:16.568Z,8.75
2022-11-24T13:36:11.275Z,8.27
2022-11-24T13:38:53.197Z,8.15
2022-11-24T13:41:36.597Z,8.60
2022-11-24T13:44:16.685Z,8.63
2022-11-24T13:47:06.902Z,8.73
2022-11-24T13:49:39.412Z,9.27
2022-11-24T13:52:43.418Z,8.43
2022-11-24T13:55:14.529Z,9.18
2022-11-24T13:57:52.568Z,8.07
2022-11-24T14:00:24.969Z,8.15
2022-11-24T14:03:01.936Z,8.32
2022-11-24T14:05:46.711Z,8.75
2022-11-24T14:08:26.179Z,8.07
2022-11-24T14:10:57.190Z,9.00
2022-11-24T14:13:32.670Z,8.90
2022-11-24T14:16:05.573Z,8.80
2022-11-24T14:18:35.663Z,8.50
2022-11-24T14:21:23.534Z,8.15
2022-11-24T14:23:59.318Z,8.13
2022-11-24T14:26:34.740Z,9.13
2022-11-24T14:29:19.250Z,8.15
2022-11-24T14:31:59.041Z,8.27
2022-11-24T14:34:30.135Z,7.90
2022-11-24T14:37:01.085Z,8.48
2022-11-24T14:39:40.730Z,8.88
2022-11-24T14:42:17.791Z,8.27
2022-11-24T14:44:53.363Z,8.55
2022-11-24T14:47:37.777Z,9.50
2022-11-24T14:50:14.185Z,9.07
2022-11-24T14:53:13.952Z,9.70
2022-11-24T14:55:42.167Z,8.57
2022-11-24T14:58:36.486Z,8.98
2022-11-24T15:01:32.289Z,7.85
2022-11-24T15:07:27.779Z,9.23
2022-11-24T15:09:58.865Z,9.65
2022-11-24T15:12:33.283Z,9.07
2022-11-24T15:15:19.029Z,8.88
2022-11-24T15:18:06.319Z,9.40
2022-11-24T15:20:40.705Z,9.70
2022-11-24T15:23:21.251Z,9.30
2022-11-24T15:25:55.986Z,8.18
2022-11-24T15:28:25.372Z,9.20
2022-11-24T15:31:10.254Z,8.82
2022-11-24T15:33:39.492Z,9.25
2022-11-24T15:36:08.504Z,9.85
2022-11-24T15:38:36.730Z,8.85
2022-11-24T15:41:21.461Z,8.60
2022-11-24T15:43:49.992Z,8.75
2022-11-24T15:46:18.288Z,8.57
2022-11-24T15:48:46.730Z,8.80
2022-11-24T15:51:15.239Z,8.88
2022-11-24T15:54:01.170Z,9.20
2022-11-24T15:56:34.268Z,10.32
2022-11-24T15:59:03.278Z,9.85
2022-11-24T16:01:33.421Z,9.68
2022-11-24T16:04:02.634Z,9.38
2022-11-24T16:06:31.556Z,9.90
2022-11-24T16:08:59.865Z,9.18
2022-11-24T16:11:28.272Z,9.45
2022-11-24T16:13:56.680Z,9.68
2022-11-24T16:16:25.632Z,10.15
2022-11-24T16:18:54.012Z,10.02
2022-11-24T16:21:22.231Z,9.90
2022-11-24T16:23:50.592Z,9.63
2022-11-24T16:26:18.831Z,9.45
2022-11-24T16:28:47.056Z,9.77
2022-11-24T16:31:15.555Z,9.35
2022-11-24T16:33:45.429Z,10.20
2022-11-24T16:36:14.789Z,10.60
2022-11-24T16:38:43.021Z,10.45
2022-11-24T16:41:11.612Z,9.70
2022-11-24T16:43:40.097Z,9.70
2022-11-24T16:46:22.217Z,9.20
2022-11-24T16:48:52.689Z,8.70
2022-11-24T16:51:22.785Z,9.82
2022-11-24T16:54:02.431Z,9.02
2022-11-24T16:56:31.822Z,8.82
2022-11-24T16:58:59.935Z,8.50
2022-11-24T17:01:28.347Z,9.02
2022-11-24T17:03:56.837Z,8.65
2022-11-24T17:06:25.271Z,9.05
2022-11-24T17:08:55.765Z,8.80
2022-11-24T17:11:26.717Z,9.30
2022-11-24T17:13:56.506Z,9.45
2022-11-24T17:16:26.565Z,9.38
2022-11-24T17:18:55.015Z,8.68
2022-11-24T17:21:25.026Z,9.48
2022-11-24T17:23:57.900Z,9.13
2022-11-24T17:26:26.897Z,10.10
2022-11-24T17:28:55.987Z,9.05
2022-11-24T17:31:32.601Z,9.30
2022-11-24T17:34:01.858Z,9.35
2022-11-24T17:36:31.616Z,9.25
2022-11-24T17:39:04.831Z,8.48
2022-11-24T17:41:34.059Z,9.80
2022-11-24T17:44:02.185Z,9.30
2022-11-24T17:46:31.675Z,8.88
2022-11-24T17:48:59.943Z,9.98
2022-11-24T17:51:28.462Z,9.80
2022-11-24T17:56:59.926Z,10.65
2022-11-24T17:59:28.378Z,10.32
2022-11-24T18:01:56.702Z,10.05
2022-11-24T18:04:24.969Z,10.93
2022-11-24T18:06:53.281Z,10.38
2022-11-24T18:09:21.512Z,10.55
2022-11-24T18:11:49.705Z,10.45
2022-11-24T18:14:18.244Z,10.48
2022-11-24T18:16:46.520Z,10.25
2022-11-24T18:19:14.779Z,10.15
2022-11-24T18:21:43.678Z,10.63
2022-11-24T18:24:13.380Z,10.55
2022-11-24T18:26:43.234Z,10.18
2022-11-24T18:29:12.015Z,10.27
2022-11-24T18:31:40.698Z,9.73
2022-11-24T18:34:09.296Z,9.20
2022-11-24T18:36:37.547Z,10.35
2022-11-24T18:39:07.679Z,10.18
2022-11-24T18:41:36.892Z,10.07
2022-11-24T18:44:05.021Z,10.60
2022-11-24T18:46:33.201Z,9.98
2022-11-24T18:49:01.359Z,10.07
2022-11-24T18:51:29.699Z,10.55
2022-11-24T18:53:58.169Z,11.50
2022-11-24T18:56:27.384Z,9.90
2022-11-24T18:58:57.162Z,10.55
2022-11-24T19:01:28.170Z,10.50
2022-11-24T19:03:58.969Z,11.35
2022-11-24T19:06:35.652Z,10.43
2022-11-24T19:09:24.324Z,10.93
2022-11-24T19:11:52.668Z,10.77
2022-11-24T19:14:20.977Z,11.20
2022-11-24T19:16:49.257Z,10.98
2022-11-24T19:19:17.953Z,12.55
2022-11-24T19:21:46.231Z,12.10
2022-11-24T19:24:38.279Z,11.38
2022-11-24T19:29:37.876Z,11.30
2022-11-24T19:32:09.326Z,12.25
2022-11-24T19:37:05.998Z,11.40
2022-11-24T19:39:34.232Z,11.27
2022-11-24T19:42:02.633Z,11.73
2022-11-24T19:44:30.910Z,11.25
2022-11-24T19:46:59.111Z,11.40
2022-11-24T19:49:27.272Z,11.68
2022-11-24T19:51:55.627Z,12.07
2022-11-24T19:54:23.968Z,11.77
2022-11-24T19:56:54.072Z,11.38
2022-11-24T19:59:22.559Z,11.68
2022-11-24T20:01:50.928Z,11.73
2022-11-24T20:06:48.268Z,12.13
2022-11-24T20:09:18.706Z,12.70
2022-11-24T20:11:47.665Z,12.13
2022-11-24T20:14:17.506Z,11.00
2022-11-24T20:16:45.809Z,11.15
2022-11-24T20:19:15.715Z,12.40
2022-11-24T20:21:44.993Z,12.45
2022-11-24T20:24:19.966Z,12.43
2022-11-24T20:26:51.966Z,12.50
2022-11-24T20:29:20.771Z,13.00
2022-11-24T20:34:22.167Z,12.52
2022-11-24T20:36:50.805Z,13.15
2022-11-24T20:39:25.117Z,12.65
2022-11-24T20:41:55.083Z,13.85
2022-11-24T20:44:24.781Z,13.73
2022-11-24T20:46:55.882Z,14.45
2022-11-24T20:49:24.359Z,13.30
2022-11-24T20:51:52.924Z,13.38
2022-11-24T20:54:21.941Z,14.55
2022-11-24T20:56:50.580Z,13.88
2022-11-24T20:59:21.801Z,14.18
2022-11-24T21:01:52.103Z,13.73
2022-11-24T21:04:24.107Z,13.98
2022-11-24T21:06:52.609Z,13.70
2022-11-24T21:09:21.012Z,14.38
2022-11-24T21:11:49.449Z,13.02
2022-11-24T21:16:45.799Z,12.60
2022-11-24T21:19:16.242Z,13.65
2022-11-24T21:21:44.841Z,13.98
2022-11-24T21:24:15.792Z,13.82
2022-11-24T21:26:45.857Z,13.98
2022-11-24T21:29:16.358Z,14.65
2022-11-24T21:31:44.629Z,15.65
2022-11-24T21:34:16.698Z,13.85
2022-11-24T21:36:45.448Z,15.32
2022-11-24T21:41:43.722Z,15.00
2022-11-24T21:44:13.244Z,14.23
2022-11-24T21:46:48.264Z,14.35
2022-11-24T21:49:20.922Z,14.00
2022-11-24T21:51:49.285Z,14.45
2022-11-24T21:54:17.638Z,14.18
2022-11-24T21:56:46.102Z,13.68
2022-11-24T21:59:14.312Z,12.20
2022-11-24T22:01:42.717Z,13.30
2022-11-24T22:04:11.307Z,12.45
2022-11-24T22:09:07.682Z,12.52
2022-11-24T22:11:35.984Z,12.52
2022-11-24T22:14:04.283Z,14.20
2022-11-24T22:16:32.798Z,14.02
2022-11-24T22:19:01.245Z,13.60
2022-11-24T22:21:29.469Z,13.98
2022-11-24T22:23:58.128Z,13.93
2022-11-24T22:26:28.177Z,13.60
2022-11-24T22:28:57.637Z,12.95
2022-11-24T22:31:31.279Z,13.57
2022-11-24T22:34:01.065Z,13.07
2022-11-24T22:36:30.566Z,13.63
2022-11-24T22:39:04.200Z,13.13
2022-11-24T22:41:34.227Z,12.70
2022-11-24T22:44:03.098Z,13.15
2022-11-24T22:46:32.399Z,12.57
2022-11-24T22:49:01.914Z,13.10
2022-11-24T22:51:33.567Z,13.52
2022-11-24T22:54:04.072Z,12.52
2022-11-24T22:56:33.453Z,13.57
2022-11-24T22:59:03.016Z,13.25
2022-11-24T23:01:32.833Z,12.57
2022-11-24T23:04:01.288Z,13.43
2022-11-24T23:06:32.076Z,12.77
2022-11-24T23:09:01.633Z,12.50
2022-11-24T23:11:37.432Z,12.07
2022-11-24T23:14:14.741Z,13.13
2022-11-24T23:16:44.237Z,13.07
2022-11-24T23:19:12.644Z,11.82
2022-11-24T23:21:40.923Z,12.00
2022-11-24T23:24:10.734Z,12.13
2022-11-24T23:26:41.035Z,12.73
2022-11-24T23:29:10.672Z,11.23
2022-11-24T23:31:38.962Z,12.60
2022-11-24T23:34:07.840Z,11.75
2022-11-24T23:39:09.430Z,11.93
2022-11-24T23:41:37.805Z,11.48
2022-11-24T23:44:06.029Z,11.80
2022-11-24T23:46:34.726Z,11.77
2022-11-24T23:51:33.040Z,11.13
2022-11-24T23:54:01.742Z,11.95
2022-11-24T23:59:01.180Z,11.95
